sensor_id;sensor_type;location;lat;lon;timestamp;temperature;humidity
80577;DHT22;69937;52.420;10.538;2024-03-06T00:01:15;3.80;65.80
80577;DHT22;69937;52.420;10.538;2024-03-06T00:06:15;3.80;66.00
80577;DHT22;69937;52.420;10.538;2024-03-06T00:11:16;3.70;66.10
80577;DHT22;69937;52.420;10.538;2024-03-06T00:16:17;3.60;66.30
80577;DHT22;69937;52.420;10.538;2024-03-06T00:21:18;3.60;66.00
80577;DHT22;69937;52.420;10.538;2024-03-06T00:26:19;3.60;66.10
80577;DHT22;69937;52.420;10.538;2024-03-06T00:31:19;3.70;66.20
80577;DHT22;69937;52.420;10.538;2024-03-06T00:36:20;3.60;66.60
80577;DHT22;69937;52.420;10.538;2024-03-06T00:41:22;3.60;66.40
80577;DHT22;69937;52.420;10.538;2024-03-06T00:46:23;3.70;66.00
80577;DHT22;69937;52.420;10.538;2024-03-06T00:51:24;3.70;66.40
80577;DHT22;69937;52.420;10.538;2024-03-06T00:56:24;3.60;66.10
80577;DHT22;69937;52.420;10.538;2024-03-06T01:01:25;3.60;66.70
80577;DHT22;69937;52.420;10.538;2024-03-06T01:06:28;3.60;66.70
80577;DHT22;69937;52.420;10.538;2024-03-06T01:11:28;3.60;66.60
80577;DHT22;69937;52.420;10.538;2024-03-06T01:16:29;3.60;66.70
80577;DHT22;69937;52.420;10.538;2024-03-06T01:21:30;3.60;66.20
80577;DHT22;69937;52.420;10.538;2024-03-06T01:26:30;3.60;66.60
80577;DHT22;69937;52.420;10.538;2024-03-06T01:31:31;3.50;66.50
80577;DHT22;69937;52.420;10.538;2024-03-06T01:36:31;3.50;66.40
80577;DHT22;69937;52.420;10.538;2024-03-06T01:41:33;3.50;66.60
80577;DHT22;69937;52.420;10.538;2024-03-06T01:46:33;3.50;66.20
80577;DHT22;69937;52.420;10.538;2024-03-06T01:51:35;3.50;66.50
80577;DHT22;69937;52.420;10.538;2024-03-06T01:56:38;3.50;66.60
80577;DHT22;69937;52.420;10.538;2024-03-06T02:01:42;3.50;67.10
80577;DHT22;69937;52.420;10.538;2024-03-06T02:06:43;3.50;66.80
80577;DHT22;69937;52.420;10.538;2024-03-06T02:11:44;3.50;67.00
80577;DHT22;69937;52.420;10.538;2024-03-06T02:16:45;3.50;67.10
80577;DHT22;69937;52.420;10.538;2024-03-06T02:21:46;3.40;67.00
80577;DHT22;69937;52.420;10.538;2024-03-06T02:26:46;3.30;67.30
80577;DHT22;69937;52.420;10.538;2024-03-06T02:31:47;3.30;67.50
80577;DHT22;69937;52.420;10.538;2024-03-06T02:36:48;3.40;67.50
80577;DHT22;69937;52.420;10.538;2024-03-06T02:41:49;3.30;67.60
80577;DHT22;69937;52.420;10.538;2024-03-06T02:46:50;3.40;67.80
80577;DHT22;69937;52.420;10.538;2024-03-06T02:51:51;3.30;67.70
80577;DHT22;69937;52.420;10.538;2024-03-06T02:56:52;3.40;67.90
80577;DHT22;69937;52.420;10.538;2024-03-06T03:01:53;3.30;68.40
80577;DHT22;69937;52.420;10.538;2024-03-06T03:06:53;3.40;68.40
80577;DHT22;69937;52.420;10.538;2024-03-06T03:11:53;3.30;68.00
80577;DHT22;69937;52.420;10.538;2024-03-06T03:16:54;3.30;68.20
80577;DHT22;69937;52.420;10.538;2024-03-06T03:21:55;3.30;68.20
80577;DHT22;69937;52.420;10.538;2024-03-06T03:26:55;3.30;68.40
80577;DHT22;69937;52.420;10.538;2024-03-06T03:31:56;3.20;68.30
80577;DHT22;69937;52.420;10.538;2024-03-06T03:36:56;3.10;68.70
80577;DHT22;69937;52.420;10.538;2024-03-06T03:41:57;3.10;68.80
80577;DHT22;69937;52.420;10.538;2024-03-06T03:46:57;3.10;68.80
80577;DHT22;69937;52.420;10.538;2024-03-06T03:51:58;3.10;69.30
80577;DHT22;69937;52.420;10.538;2024-03-06T03:56:58;3.10;69.30
80577;DHT22;69937;52.420;10.538;2024-03-06T04:01:59;3.10;69.30
80577;DHT22;69937;52.420;10.538;2024-03-06T04:07:00;3.10;69.50
80577;DHT22;69937;52.420;10.538;2024-03-06T04:12:05;3.10;69.50
80577;DHT22;69937;52.420;10.538;2024-03-06T04:17:05;3.00;69.70
80577;DHT22;69937;52.420;10.538;2024-03-06T04:22:06;3.00;69.80
80577;DHT22;69937;52.420;10.538;2024-03-06T04:27:06;2.90;69.90
80577;DHT22;69937;52.420;10.538;2024-03-06T04:32:07;2.90;70.10
80577;DHT22;69937;52.420;10.538;2024-03-06T04:37:07;2.90;70.20
80577;DHT22;69937;52.420;10.538;2024-03-06T04:42:08;2.90;70.30
80577;DHT22;69937;52.420;10.538;2024-03-06T04:47:08;2.90;70.50
80577;DHT22;69937;52.420;10.538;2024-03-06T04:52:09;2.90;70.80
80577;DHT22;69937;52.420;10.538;2024-03-06T04:57:09;2.90;70.60
80577;DHT22;69937;52.420;10.538;2024-03-06T05:02:10;2.90;70.90
80577;DHT22;69937;52.420;10.538;2024-03-06T05:07:14;2.90;70.70
80577;DHT22;69937;52.420;10.538;2024-03-06T05:12:41;2.90;71.10
80577;DHT22;69937;52.420;10.538;2024-03-06T05:23:19;2.90;70.90
80577;DHT22;69937;52.420;10.538;2024-03-06T05:28:20;2.80;71.30
80577;DHT22;69937;52.420;10.538;2024-03-06T05:33:20;2.80;71.20
80577;DHT22;69937;52.420;10.538;2024-03-06T05:38:22;2.70;71.40
80577;DHT22;69937;52.420;10.538;2024-03-06T05:43:22;2.70;71.40
80577;DHT22;69937;52.420;10.538;2024-03-06T05:48:23;2.70;71.10
80577;DHT22;69937;52.420;10.538;2024-03-06T05:53:24;2.70;71.30
80577;DHT22;69937;52.420;10.538;2024-03-06T05:58:25;2.70;71.60
80577;DHT22;69937;52.420;10.538;2024-03-06T06:03:25;2.60;71.70
80577;DHT22;69937;52.420;10.538;2024-03-06T06:08:26;2.60;72.30
80577;DHT22;69937;52.420;10.538;2024-03-06T06:13:26;2.60;72.20
80577;DHT22;69937;52.420;10.538;2024-03-06T06:18:27;2.70;72.60
80577;DHT22;69937;52.420;10.538;2024-03-06T06:23:27;2.70;72.50
80577;DHT22;69937;52.420;10.538;2024-03-06T06:28:28;2.70;72.20
80577;DHT22;69937;52.420;10.538;2024-03-06T06:33:28;2.60;72.30
80577;DHT22;69937;52.420;10.538;2024-03-06T06:38:29;2.70;72.50
80577;DHT22;69937;52.420;10.538;2024-03-06T06:43:30;2.70;72.60
80577;DHT22;69937;52.420;10.538;2024-03-06T06:48:30;2.70;72.40
80577;DHT22;69937;52.420;10.538;2024-03-06T06:53:31;2.70;72.20
80577;DHT22;69937;52.420;10.538;2024-03-06T06:58:32;2.70;72.70
80577;DHT22;69937;52.420;10.538;2024-03-06T07:03:32;2.70;72.30
80577;DHT22;69937;52.420;10.538;2024-03-06T07:08:32;2.80;72.10
80577;DHT22;69937;52.420;10.538;2024-03-06T07:13:33;2.80;72.00
80577;DHT22;69937;52.420;10.538;2024-03-06T07:18:34;2.80;72.00
80577;DHT22;69937;52.420;10.538;2024-03-06T07:23:35;2.80;71.80
80577;DHT22;69937;52.420;10.538;2024-03-06T07:28:35;2.90;72.00
80577;DHT22;69937;52.420;10.538;2024-03-06T07:33:37;2.90;71.70
80577;DHT22;69937;52.420;10.538;2024-03-06T07:38:38;3.00;71.50
80577;DHT22;69937;52.420;10.538;2024-03-06T07:43:39;3.10;71.60
80577;DHT22;69937;52.420;10.538;2024-03-06T07:48:42;3.30;71.70
80577;DHT22;69937;52.420;10.538;2024-03-06T07:53:46;3.30;71.20
80577;DHT22;69937;52.420;10.538;2024-03-06T07:58:47;3.50;70.60
80577;DHT22;69937;52.420;10.538;2024-03-06T08:03:48;3.90;69.90
80577;DHT22;69937;52.420;10.538;2024-03-06T08:08:48;4.20;69.20
80577;DHT22;69937;52.420;10.538;2024-03-06T08:13:49;4.50;68.00
80577;DHT22;69937;52.420;10.538;2024-03-06T08:18:50;4.60;67.60
80577;DHT22;69937;52.420;10.538;2024-03-06T08:23:50;4.80;67.10
80577;DHT22;69937;52.420;10.538;2024-03-06T08:28:51;4.70;66.30
80577;DHT22;69937;52.420;10.538;2024-03-06T08:33:52;4.70;66.80
80577;DHT22;69937;52.420;10.538;2024-03-06T08:38:53;4.80;66.60
80577;DHT22;69937;52.420;10.538;2024-03-06T08:43:53;4.90;66.30
80577;DHT22;69937;52.420;10.538;2024-03-06T08:48:54;4.90;66.30
80577;DHT22;69937;52.420;10.538;2024-03-06T08:53:55;5.00;66.60
80577;DHT22;69937;52.420;10.538;2024-03-06T08:58:55;5.20;65.70
80577;DHT22;69937;52.420;10.538;2024-03-06T09:03:56;5.30;64.90
80577;DHT22;69937;52.420;10.538;2024-03-06T09:08:57;5.50;64.70
80577;DHT22;69937;52.420;10.538;2024-03-06T09:13:58;5.90;63.90
80577;DHT22;69937;52.420;10.538;2024-03-06T09:18:58;6.30;62.80
80577;DHT22;69937;52.420;10.538;2024-03-06T09:23:59;6.80;61.70
80577;DHT22;69937;52.420;10.538;2024-03-06T09:28:59;7.50;59.90
80577;DHT22;69937;52.420;10.538;2024-03-06T09:34:01;7.80;58.50
80577;DHT22;69937;52.420;10.538;2024-03-06T09:39:02;8.40;57.50
80577;DHT22;69937;52.420;10.538;2024-03-06T09:44:05;8.80;57.90
80577;DHT22;69937;52.420;10.538;2024-03-06T09:49:06;9.20;55.90
80577;DHT22;69937;52.420;10.538;2024-03-06T09:54:08;9.50;54.70
80577;DHT22;69937;52.420;10.538;2024-03-06T09:59:10;10.00;53.50
80577;DHT22;69937;52.420;10.538;2024-03-06T10:04:24;10.00;51.80
80577;DHT22;69937;52.420;10.538;2024-03-06T10:09:26;10.00;51.70
80577;DHT22;69937;52.420;10.538;2024-03-06T10:14:26;10.30;51.30
80577;DHT22;69937;52.420;10.538;2024-03-06T10:19:29;10.50;51.60
80577;DHT22;69937;52.420;10.538;2024-03-06T10:24:30;11.00;51.20
80577;DHT22;69937;52.420;10.538;2024-03-06T10:29:31;11.40;50.80
80577;DHT22;69937;52.420;10.538;2024-03-06T10:34:31;11.50;49.90
80577;DHT22;69937;52.420;10.538;2024-03-06T10:39:33;12.10;49.40
80577;DHT22;69937;52.420;10.538;2024-03-06T10:44:44;12.70;48.80
80577;DHT22;69937;52.420;10.538;2024-03-06T10:49:50;12.80;48.50
80577;DHT22;69937;52.420;10.538;2024-03-06T10:54:50;12.20;48.80
80577;DHT22;69937;52.420;10.538;2024-03-06T10:59:52;12.00;49.90
80577;DHT22;69937;52.420;10.538;2024-03-06T11:04:53;11.70;48.70
80577;DHT22;69937;52.420;10.538;2024-03-06T11:09:54;12.00;49.40
80577;DHT22;69937;52.420;10.538;2024-03-06T11:14:58;12.50;47.40
80577;DHT22;69937;52.420;10.538;2024-03-06T11:24:59;12.90;47.50
80577;DHT22;69937;52.420;10.538;2024-03-06T11:30:07;13.40;47.50
80577;DHT22;69937;52.420;10.538;2024-03-06T11:35:13;13.40;46.20
80577;DHT22;69937;52.420;10.538;2024-03-06T11:40:23;13.90;47.00
80577;DHT22;69937;52.420;10.538;2024-03-06T11:45:31;14.60;45.30
80577;DHT22;69937;52.420;10.538;2024-03-06T11:50:32;14.90;44.80
80577;DHT22;69937;52.420;10.538;2024-03-06T11:55:33;14.70;44.70
80577;DHT22;69937;52.420;10.538;2024-03-06T12:00:33;15.20;44.30
80577;DHT22;69937;52.420;10.538;2024-03-06T12:05:34;15.80;44.10
80577;DHT22;69937;52.420;10.538;2024-03-06T12:10:38;16.80;41.90
80577;DHT22;69937;52.420;10.538;2024-03-06T12:15:43;16.70;41.90
80577;DHT22;69937;52.420;10.538;2024-03-06T12:20:44;17.60;42.10
80577;DHT22;69937;52.420;10.538;2024-03-06T12:25:49;17.70;41.10
80577;DHT22;69937;52.420;10.538;2024-03-06T12:30:49;17.10;41.00
80577;DHT22;69937;52.420;10.538;2024-03-06T12:36:04;17.10;41.80
80577;DHT22;69937;52.420;10.538;2024-03-06T12:41:05;16.90;40.90
80577;DHT22;69937;52.420;10.538;2024-03-06T12:46:06;17.00;41.60
80577;DHT22;69937;52.420;10.538;2024-03-06T12:51:06;17.50;40.50
80577;DHT22;69937;52.420;10.538;2024-03-06T12:56:07;17.80;40.10
80577;DHT22;69937;52.420;10.538;2024-03-06T13:01:08;18.50;39.60
80577;DHT22;69937;52.420;10.538;2024-03-06T13:06:09;17.80;40.40
80577;DHT22;69937;52.420;10.538;2024-03-06T13:11:10;18.50;40.90
80577;DHT22;69937;52.420;10.538;2024-03-06T13:16:10;19.00;39.70
80577;DHT22;69937;52.420;10.538;2024-03-06T13:21:11;19.40;38.20
80577;DHT22;69937;52.420;10.538;2024-03-06T13:26:11;19.50;38.50
80577;DHT22;69937;52.420;10.538;2024-03-06T13:31:13;19.60;39.10
80577;DHT22;69937;52.420;10.538;2024-03-06T13:36:14;20.10;38.00
80577;DHT22;69937;52.420;10.538;2024-03-06T13:41:15;20.20;38.20
80577;DHT22;69937;52.420;10.538;2024-03-06T13:46:16;21.10;37.00
80577;DHT22;69937;52.420;10.538;2024-03-06T13:51:17;20.70;37.70
80577;DHT22;69937;52.420;10.538;2024-03-06T13:56:17;21.30;36.80
80577;DHT22;69937;52.420;10.538;2024-03-06T14:01:18;20.80;36.60
80577;DHT22;69937;52.420;10.538;2024-03-06T14:06:19;19.40;37.90
80577;DHT22;69937;52.420;10.538;2024-03-06T14:11:19;19.10;38.00
80577;DHT22;69937;52.420;10.538;2024-03-06T14:16:20;19.10;38.20
80577;DHT22;69937;52.420;10.538;2024-03-06T14:21:20;19.20;37.90
80577;DHT22;69937;52.420;10.538;2024-03-06T14:26:21;19.10;38.00
80577;DHT22;69937;52.420;10.538;2024-03-06T14:31:23;18.90;38.90
80577;DHT22;69937;52.420;10.538;2024-03-06T14:36:23;18.80;38.30
80577;DHT22;69937;52.420;10.538;2024-03-06T14:41:27;18.10;38.90
80577;DHT22;69937;52.420;10.538;2024-03-06T14:46:28;17.50;40.30
80577;DHT22;69937;52.420;10.538;2024-03-06T14:51:29;17.20;40.90
80577;DHT22;69937;52.420;10.538;2024-03-06T14:56:30;16.40;41.80
80577;DHT22;69937;52.420;10.538;2024-03-06T15:01:31;15.40;43.00
80577;DHT22;69937;52.420;10.538;2024-03-06T15:06:31;15.00;43.70
80577;DHT22;69937;52.420;10.538;2024-03-06T15:11:34;15.20;44.40
80577;DHT22;69937;52.420;10.538;2024-03-06T15:16:37;15.60;43.00
80577;DHT22;69937;52.420;10.538;2024-03-06T15:21:40;15.60;42.60
80577;DHT22;69937;52.420;10.538;2024-03-06T15:26:40;15.40;43.40
80577;DHT22;69937;52.420;10.538;2024-03-06T15:31:41;15.30;43.50
80577;DHT22;69937;52.420;10.538;2024-03-06T15:36:41;15.20;44.00
80577;DHT22;69937;52.420;10.538;2024-03-06T15:41:42;15.00;44.30
80577;DHT22;69937;52.420;10.538;2024-03-06T15:46:42;14.80;44.20
80577;DHT22;69937;52.420;10.538;2024-03-06T15:51:43;14.40;44.50
80577;DHT22;69937;52.420;10.538;2024-03-06T15:56:44;14.40;44.90
80577;DHT22;69937;52.420;10.538;2024-03-06T16:01:44;14.20;45.20
80577;DHT22;69937;52.420;10.538;2024-03-06T16:06:45;13.30;44.70
80577;DHT22;69937;52.420;10.538;2024-03-06T16:11:46;13.00;45.90
80577;DHT22;69937;52.420;10.538;2024-03-06T16:16:46;12.50;46.50
80577;DHT22;69937;52.420;10.538;2024-03-06T16:21:47;12.10;47.30
80577;DHT22;69937;52.420;10.538;2024-03-06T16:26:47;11.70;47.50
80577;DHT22;69937;52.420;10.538;2024-03-06T16:31:48;11.30;48.70
80577;DHT22;69937;52.420;10.538;2024-03-06T16:36:50;10.90;49.20
80577;DHT22;69937;52.420;10.538;2024-03-06T16:41:51;10.50;50.00
80577;DHT22;69937;52.420;10.538;2024-03-06T16:46:52;10.20;50.40
80577;DHT22;69937;52.420;10.538;2024-03-06T16:51:52;10.10;51.00
80577;DHT22;69937;52.420;10.538;2024-03-06T16:56:53;9.80;51.90
80577;DHT22;69937;52.420;10.538;2024-03-06T17:01:54;9.40;53.00
80577;DHT22;69937;52.420;10.538;2024-03-06T17:06:56;9.20;53.60
80577;DHT22;69937;52.420;10.538;2024-03-06T17:11:57;8.90;54.10
80577;DHT22;69937;52.420;10.538;2024-03-06T17:16:57;8.70;55.00
80577;DHT22;69937;52.420;10.538;2024-03-06T17:21:58;8.60;55.10
80577;DHT22;69937;52.420;10.538;2024-03-06T17:26:58;8.20;55.90
80577;DHT22;69937;52.420;10.538;2024-03-06T17:31:59;8.00;57.00
80577;DHT22;69937;52.420;10.538;2024-03-06T17:36:59;7.80;56.90
80577;DHT22;69937;52.420;10.538;2024-03-06T17:42:00;7.50;57.60
80577;DHT22;69937;52.420;10.538;2024-03-06T17:47:01;7.40;57.70
80577;DHT22;69937;52.420;10.538;2024-03-06T17:52:02;7.30;57.70
80577;DHT22;69937;52.420;10.538;2024-03-06T17:57:03;7.10;58.30
80577;DHT22;69937;52.420;10.538;2024-03-06T18:02:03;7.10;58.80
80577;DHT22;69937;52.420;10.538;2024-03-06T18:07:04;7.00;58.60
80577;DHT22;69937;52.420;10.538;2024-03-06T18:12:04;7.00;59.10
80577;DHT22;69937;52.420;10.538;2024-03-06T18:17:05;6.80;59.50
80577;DHT22;69937;52.420;10.538;2024-03-06T18:22:06;6.70;59.80
80577;DHT22;69937;52.420;10.538;2024-03-06T18:27:06;6.60;60.10
80577;DHT22;69937;52.420;10.538;2024-03-06T18:32:07;6.60;60.00
80577;DHT22;69937;52.420;10.538;2024-03-06T18:37:08;6.40;60.30
80577;DHT22;69937;52.420;10.538;2024-03-06T18:42:08;6.40;59.90
80577;DHT22;69937;52.420;10.538;2024-03-06T18:47:09;6.20;60.50
80577;DHT22;69937;52.420;10.538;2024-03-06T18:52:09;6.10;60.70
80577;DHT22;69937;52.420;10.538;2024-03-06T18:57:10;5.90;61.20
80577;DHT22;69937;52.420;10.538;2024-03-06T19:02:11;5.80;61.30
80577;DHT22;69937;52.420;10.538;2024-03-06T19:07:12;5.70;61.70
80577;DHT22;69937;52.420;10.538;2024-03-06T19:12:13;5.50;62.10
80577;DHT22;69937;52.420;10.538;2024-03-06T19:17:14;5.50;62.30
80577;DHT22;69937;52.420;10.538;2024-03-06T19:22:15;5.30;62.50
80577;DHT22;69937;52.420;10.538;2024-03-06T19:27:15;5.20;62.90
80577;DHT22;69937;52.420;10.538;2024-03-06T19:32:16;5.10;63.80
80577;DHT22;69937;52.420;10.538;2024-03-06T19:37:16;5.00;64.00
80577;DHT22;69937;52.420;10.538;2024-03-06T19:42:18;5.00;64.00
80577;DHT22;69937;52.420;10.538;2024-03-06T19:47:19;4.80;64.50
80577;DHT22;69937;52.420;10.538;2024-03-06T19:52:20;4.70;64.80
80577;DHT22;69937;52.420;10.538;2024-03-06T19:57:21;4.50;65.80
80577;DHT22;69937;52.420;10.538;2024-03-06T20:02:21;4.50;66.20
80577;DHT22;69937;52.420;10.538;2024-03-06T20:07:22;4.40;66.80
80577;DHT22;69937;52.420;10.538;2024-03-06T20:12:22;4.30;67.00
80577;DHT22;69937;52.420;10.538;2024-03-06T20:17:23;4.20;67.40
80577;DHT22;69937;52.420;10.538;2024-03-06T20:22:24;4.20;67.80
80577;DHT22;69937;52.420;10.538;2024-03-06T20:27:24;4.30;67.90
80577;DHT22;69937;52.420;10.538;2024-03-06T20:32:26;4.30;67.50
80577;DHT22;69937;52.420;10.538;2024-03-06T20:37:29;4.40;67.30
80577;DHT22;69937;52.420;10.538;2024-03-06T20:42:29;4.50;67.10
80577;DHT22;69937;52.420;10.538;2024-03-06T20:47:30;4.50;67.00
80577;DHT22;69937;52.420;10.538;2024-03-06T20:52:30;4.50;67.10
80577;DHT22;69937;52.420;10.538;2024-03-06T20:57:31;4.50;67.20
80577;DHT22;69937;52.420;10.538;2024-03-06T21:02:32;4.60;67.50
80577;DHT22;69937;52.420;10.538;2024-03-06T21:07:32;4.50;67.50
80577;DHT22;69937;52.420;10.538;2024-03-06T21:12:36;4.60;67.40
80577;DHT22;69937;52.420;10.538;2024-03-06T21:17:36;4.60;67.60
80577;DHT22;69937;52.420;10.538;2024-03-06T21:22:43;4.50;68.20
80577;DHT22;69937;52.420;10.538;2024-03-06T21:27:44;4.60;68.00
80577;DHT22;69937;52.420;10.538;2024-03-06T21:32:45;4.60;67.90
80577;DHT22;69937;52.420;10.538;2024-03-06T21:37:45;4.70;68.30
80577;DHT22;69937;52.420;10.538;2024-03-06T21:42:46;4.70;68.90
80577;DHT22;69937;52.420;10.538;2024-03-06T21:47:46;4.70;69.40
80577;DHT22;69937;52.420;10.538;2024-03-06T21:52:47;4.70;68.90
80577;DHT22;69937;52.420;10.538;2024-03-06T21:57:48;4.80;68.80
80577;DHT22;69937;52.420;10.538;2024-03-06T22:02:48;4.80;68.50
80577;DHT22;69937;52.420;10.538;2024-03-06T22:07:49;4.70;68.70
80577;DHT22;69937;52.420;10.538;2024-03-06T22:12:51;4.70;69.00
80577;DHT22;69937;52.420;10.538;2024-03-06T22:17:51;4.70;69.00
80577;DHT22;69937;52.420;10.538;2024-03-06T22:22:52;4.60;69.00
80577;DHT22;69937;52.420;10.538;2024-03-06T22:27:53;4.60;68.80
80577;DHT22;69937;52.420;10.538;2024-03-06T22:32:53;4.60;68.70
80577;DHT22;69937;52.420;10.538;2024-03-06T22:37:54;4.60;68.80
80577;DHT22;69937;52.420;10.538;2024-03-06T22:42:54;4.50;69.10
80577;DHT22;69937;52.420;10.538;2024-03-06T22:47:55;4.60;69.00
80577;DHT22;69937;52.420;10.538;2024-03-06T22:52:55;4.50;68.80
80577;DHT22;69937;52.420;10.538;2024-03-06T22:57:56;4.50;68.70
80577;DHT22;69937;52.420;10.538;2024-03-06T23:03:00;4.30;69.00
80577;DHT22;69937;52.420;10.538;2024-03-06T23:08:01;4.20;69.40
80577;DHT22;69937;52.420;10.538;2024-03-06T23:13:01;4.20;69.40
80577;DHT22;69937;52.420;10.538;2024-03-06T23:18:03;4.10;69.30
80577;DHT22;69937;52.420;10.538;2024-03-06T23:23:04;4.00;69.40
80577;DHT22;69937;52.420;10.538;2024-03-06T23:28:05;3.90;69.50
80577;DHT22;69937;52.420;10.538;2024-03-06T23:33:05;3.70;69.90
80577;DHT22;69937;52.420;10.538;2024-03-06T23:38:06;3.50;70.10
80577;DHT22;69937;52.420;10.538;2024-03-06T23:43:07;3.40;70.40
80577;DHT22;69937;52.420;10.538;2024-03-06T23:48:07;3.30;70.50
80577;DHT22;69937;52.420;10.538;2024-03-06T23:53:10;3.20;70.70
80577;DHT22;69937;52.420;10.538;2024-03-06T23:58:10;3.00;71.50
